sensor_id;sensor_type;location;lat;lon;timestamp;P1;durP1;ratioP1;P2;durP2;ratioP2
6193;SDS011;3130;41.564;23.280;2022-09-01T00:02:12;16.43;;;13.03;;
6193;SDS011;3130;41.564;23.280;2022-09-01T00:04:41;19.30;;;14.03;;
6193;SDS011;3130;41.564;23.280;2022-09-01T00:07:10;18.20;;;14.33;;
6193;SDS011;3130;41.564;23.280;2022-09-01T00:09:39;20.90;;;13.23;;
6193;SDS011;3130;41.564;23.280;2022-09-01T00:12:08;17.47;;;14.13;;
6193;SDS011;3130;41.564;23.280;2022-09-01T00:14:36;16.03;;;14.13;;
6193;SDS011;3130;41.564;23.280;2022-09-01T00:17:08;17.13;;;15.33;;
6193;SDS011;3130;41.564;23.280;2022-09-01T00:19:37;20.07;;;14.00;;
6193;SDS011;3130;41.564;23.280;2022-09-01T00:22:04;17.17;;;15.37;;
6193;SDS011;3130;41.564;23.280;2022-09-01T00:24:32;19.17;;;15.03;;
6193;SDS011;3130;41.564;23.280;2022-09-01T00:26:59;18.00;;;14.07;;
6193;SDS011;3130;41.564;23.280;2022-09-01T00:29:28;17.00;;;13.43;;
6193;SDS011;3130;41.564;23.280;2022-09-01T00:31:55;20.07;;;14.53;;
6193;SDS011;3130;41.564;23.280;2022-09-01T00:34:22;19.17;;;14.57;;
6193;SDS011;3130;41.564;23.280;2022-09-01T00:36:49;14.90;;;13.30;;
6193;SDS011;3130;41.564;23.280;2022-09-01T00:39:17;18.93;;;14.37;;
6193;SDS011;3130;41.564;23.280;2022-09-01T00:41:44;17.73;;;14.70;;
6193;SDS011;3130;41.564;23.280;2022-09-01T00:44:12;18.50;;;14.33;;
6193;SDS011;3130;41.564;23.280;2022-09-01T00:46:46;16.33;;;13.83;;
6193;SDS011;3130;41.564;23.280;2022-09-01T00:49:15;15.20;;;13.67;;
6193;SDS011;3130;41.564;23.280;2022-09-01T00:51:48;18.47;;;13.83;;
6193;SDS011;3130;41.564;23.280;2022-09-01T00:54:19;21.37;;;16.43;;
6193;SDS011;3130;41.564;23.280;2022-09-01T00:56:48;17.13;;;14.70;;
6193;SDS011;3130;41.564;23.280;2022-09-01T00:59:16;16.30;;;13.73;;
6193;SDS011;3130;41.564;23.280;2022-09-01T01:01:47;19.93;;;15.40;;
6193;SDS011;3130;41.564;23.280;2022-09-01T01:04:19;18.60;;;14.80;;
6193;SDS011;3130;41.564;23.280;2022-09-01T01:06:47;20.63;;;15.20;;
6193;SDS011;3130;41.564;23.280;2022-09-01T01:09:23;17.57;;;13.90;;
6193;SDS011;3130;41.564;23.280;2022-09-01T01:11:52;23.70;;;14.47;;
6193;SDS011;3130;41.564;23.280;2022-09-01T01:14:23;17.47;;;15.10;;
6193;SDS011;3130;41.564;23.280;2022-09-01T01:16:58;17.73;;;14.67;;
6193;SDS011;3130;41.564;23.280;2022-09-01T01:19:29;21.27;;;14.63;;
6193;SDS011;3130;41.564;23.280;2022-09-01T01:22:23;18.93;;;13.70;;
6193;SDS011;3130;41.564;23.280;2022-09-01T01:25:16;19.43;;;13.93;;
6193;SDS011;3130;41.564;23.280;2022-09-01T01:27:46;17.43;;;13.83;;
6193;SDS011;3130;41.564;23.280;2022-09-01T01:30:14;16.27;;;13.67;;
6193;SDS011;3130;41.564;23.280;2022-09-01T01:32:43;17.63;;;14.50;;
6193;SDS011;3130;41.564;23.280;2022-09-01T01:35:13;17.40;;;13.93;;
6193;SDS011;3130;41.564;23.280;2022-09-01T01:37:43;18.80;;;14.47;;
6193;SDS011;3130;41.564;23.280;2022-09-01T01:40:14;15.93;;;13.87;;
6193;SDS011;3130;41.564;23.280;2022-09-01T01:42:47;18.13;;;15.17;;
6193;SDS011;3130;41.564;23.280;2022-09-01T01:45:16;19.40;;;15.30;;
6193;SDS011;3130;41.564;23.280;2022-09-01T01:47:46;19.77;;;15.83;;
6193;SDS011;3130;41.564;23.280;2022-09-01T01:50:17;20.03;;;15.37;;
6193;SDS011;3130;41.564;23.280;2022-09-01T01:52:45;17.40;;;13.97;;
6193;SDS011;3130;41.564;23.280;2022-09-01T01:55:13;18.40;;;15.60;;
6193;SDS011;3130;41.564;23.280;2022-09-01T01:57:45;16.03;;;14.00;;
6193;SDS011;3130;41.564;23.280;2022-09-01T02:00:15;17.50;;;15.27;;
6193;SDS011;3130;41.564;23.280;2022-09-01T02:02:45;18.43;;;13.67;;
6193;SDS011;3130;41.564;23.280;2022-09-01T02:05:17;16.23;;;13.73;;
6193;SDS011;3130;41.564;23.280;2022-09-01T02:07:47;18.10;;;14.63;;
6193;SDS011;3130;41.564;23.280;2022-09-01T02:10:14;17.03;;;14.33;;
6193;SDS011;3130;41.564;23.280;2022-09-01T02:12:41;16.67;;;14.33;;
6193;SDS011;3130;41.564;23.280;2022-09-01T02:15:10;16.37;;;14.57;;
6193;SDS011;3130;41.564;23.280;2022-09-01T02:17:37;21.23;;;15.60;;
6193;SDS011;3130;41.564;23.280;2022-09-01T02:20:07;18.30;;;14.87;;
6193;SDS011;3130;41.564;23.280;2022-09-01T02:22:35;24.23;;;15.33;;
6193;SDS011;3130;41.564;23.280;2022-09-01T02:25:04;17.03;;;15.20;;
6193;SDS011;3130;41.564;23.280;2022-09-01T02:27:31;20.50;;;16.37;;
6193;SDS011;3130;41.564;23.280;2022-09-01T02:29:59;20.87;;;15.63;;
6193;SDS011;3130;41.564;23.280;2022-09-01T02:32:28;17.13;;;15.10;;
6193;SDS011;3130;41.564;23.280;2022-09-01T02:34:56;19.13;;;15.17;;
6193;SDS011;3130;41.564;23.280;2022-09-01T02:37:25;21.17;;;16.07;;
6193;SDS011;3130;41.564;23.280;2022-09-01T02:39:53;18.13;;;16.17;;
6193;SDS011;3130;41.564;23.280;2022-09-01T02:42:22;19.10;;;15.67;;
6193;SDS011;3130;41.564;23.280;2022-09-01T02:44:52;19.63;;;16.03;;
6193;SDS011;3130;41.564;23.280;2022-09-01T02:47:20;23.40;;;15.20;;
6193;SDS011;3130;41.564;23.280;2022-09-01T02:49:52;19.87;;;15.27;;
6193;SDS011;3130;41.564;23.280;2022-09-01T02:52:20;19.60;;;14.87;;
6193;SDS011;3130;41.564;23.280;2022-09-01T02:54:47;18.03;;;15.70;;
6193;SDS011;3130;41.564;23.280;2022-09-01T02:57:15;18.60;;;15.67;;
6193;SDS011;3130;41.564;23.280;2022-09-01T02:59:42;18.87;;;15.77;;
6193;SDS011;3130;41.564;23.280;2022-09-01T03:02:11;18.93;;;16.40;;
6193;SDS011;3130;41.564;23.280;2022-09-01T03:04:38;17.43;;;15.53;;
6193;SDS011;3130;41.564;23.280;2022-09-01T03:07:07;17.53;;;15.67;;
6193;SDS011;3130;41.564;23.280;2022-09-01T03:09:34;20.80;;;17.17;;
6193;SDS011;3130;41.564;23.280;2022-09-01T03:12:03;20.93;;;16.20;;
6193;SDS011;3130;41.564;23.280;2022-09-01T03:14:31;23.00;;;17.50;;
6193;SDS011;3130;41.564;23.280;2022-09-01T03:16:58;19.30;;;16.13;;
6193;SDS011;3130;41.564;23.280;2022-09-01T03:19:25;22.43;;;17.17;;
6193;SDS011;3130;41.564;23.280;2022-09-01T03:22:09;21.33;;;16.53;;
6193;SDS011;3130;41.564;23.280;2022-09-01T03:24:37;23.97;;;17.23;;
6193;SDS011;3130;41.564;23.280;2022-09-01T03:27:04;23.40;;;18.30;;
6193;SDS011;3130;41.564;23.280;2022-09-01T03:29:32;20.97;;;16.67;;
6193;SDS011;3130;41.564;23.280;2022-09-01T03:31:59;20.63;;;16.57;;
6193;SDS011;3130;41.564;23.280;2022-09-01T03:34:26;19.47;;;16.03;;
6193;SDS011;3130;41.564;23.280;2022-09-01T03:36:53;20.87;;;16.80;;
6193;SDS011;3130;41.564;23.280;2022-09-01T03:39:22;17.87;;;15.90;;
6193;SDS011;3130;41.564;23.280;2022-09-01T03:41:49;19.80;;;16.20;;
6193;SDS011;3130;41.564;23.280;2022-09-01T03:44:16;19.93;;;16.83;;
6193;SDS011;3130;41.564;23.280;2022-09-01T03:46:43;20.67;;;17.17;;
6193;SDS011;3130;41.564;23.280;2022-09-01T03:49:11;25.50;;;17.23;;
6193;SDS011;3130;41.564;23.280;2022-09-01T03:51:39;18.73;;;15.43;;
6193;SDS011;3130;41.564;23.280;2022-09-01T03:54:08;20.33;;;15.77;;
6193;SDS011;3130;41.564;23.280;2022-09-01T03:56:37;21.20;;;17.27;;
6193;SDS011;3130;41.564;23.280;2022-09-01T03:59:07;19.27;;;16.00;;
6193;SDS011;3130;41.564;23.280;2022-09-01T04:01:41;22.07;;;17.17;;
6193;SDS011;3130;41.564;23.280;2022-09-01T04:04:11;20.47;;;17.17;;
6193;SDS011;3130;41.564;23.280;2022-09-01T04:06:39;23.60;;;17.27;;
6193;SDS011;3130;41.564;23.280;2022-09-01T04:09:06;20.53;;;17.83;;
6193;SDS011;3130;41.564;23.280;2022-09-01T04:11:35;23.37;;;17.80;;
6193;SDS011;3130;41.564;23.280;2022-09-01T04:14:06;24.00;;;17.30;;
6193;SDS011;3130;41.564;23.280;2022-09-01T04:16:36;19.67;;;16.10;;
6193;SDS011;3130;41.564;23.280;2022-09-01T04:19:21;22.23;;;17.80;;
6193;SDS011;3130;41.564;23.280;2022-09-01T04:21:51;23.97;;;18.17;;
6193;SDS011;3130;41.564;23.280;2022-09-01T04:24:21;19.83;;;16.30;;
6193;SDS011;3130;41.564;23.280;2022-09-01T04:26:50;21.07;;;17.13;;
6193;SDS011;3130;41.564;23.280;2022-09-01T04:29:19;22.60;;;17.23;;
6193;SDS011;3130;41.564;23.280;2022-09-01T04:31:51;23.23;;;17.53;;
6193;SDS011;3130;41.564;23.280;2022-09-01T04:34:18;21.70;;;16.87;;
6193;SDS011;3130;41.564;23.280;2022-09-01T04:36:46;19.57;;;15.33;;
6193;SDS011;3130;41.564;23.280;2022-09-01T04:39:18;24.10;;;17.30;;
6193;SDS011;3130;41.564;23.280;2022-09-01T04:41:46;20.17;;;17.00;;
6193;SDS011;3130;41.564;23.280;2022-09-01T04:44:16;24.57;;;17.30;;
6193;SDS011;3130;41.564;23.280;2022-09-01T04:46:44;23.77;;;16.83;;
6193;SDS011;3130;41.564;23.280;2022-09-01T04:49:15;19.80;;;17.03;;
6193;SDS011;3130;41.564;23.280;2022-09-01T04:51:47;20.30;;;17.33;;
6193;SDS011;3130;41.564;23.280;2022-09-01T04:54:16;21.73;;;15.67;;
6193;SDS011;3130;41.564;23.280;2022-09-01T04:56:44;24.03;;;16.63;;
6193;SDS011;3130;41.564;23.280;2022-09-01T04:59:13;19.97;;;16.37;;
6193;SDS011;3130;41.564;23.280;2022-09-01T05:01:44;22.33;;;16.67;;
6193;SDS011;3130;41.564;23.280;2022-09-01T05:04:15;22.13;;;17.57;;
6193;SDS011;3130;41.564;23.280;2022-09-01T05:06:44;20.97;;;18.13;;
6193;SDS011;3130;41.564;23.280;2022-09-01T05:09:15;20.67;;;16.77;;
6193;SDS011;3130;41.564;23.280;2022-09-01T05:11:43;24.77;;;17.13;;
6193;SDS011;3130;41.564;23.280;2022-09-01T05:14:15;20.30;;;16.57;;
6193;SDS011;3130;41.564;23.280;2022-09-01T05:16:44;21.43;;;16.30;;
6193;SDS011;3130;41.564;23.280;2022-09-01T05:19:12;20.47;;;16.80;;
6193;SDS011;3130;41.564;23.280;2022-09-01T05:21:42;25.57;;;17.40;;
6193;SDS011;3130;41.564;23.280;2022-09-01T05:24:11;18.57;;;16.37;;
6193;SDS011;3130;41.564;23.280;2022-09-01T05:26:42;18.50;;;15.57;;
6193;SDS011;3130;41.564;23.280;2022-09-01T05:29:11;20.00;;;17.50;;
6193;SDS011;3130;41.564;23.280;2022-09-01T05:31:42;17.47;;;15.63;;
6193;SDS011;3130;41.564;23.280;2022-09-01T05:34:14;23.40;;;18.37;;
6193;SDS011;3130;41.564;23.280;2022-09-01T05:36:50;28.37;;;17.33;;
6193;SDS011;3130;41.564;23.280;2022-09-01T05:39:18;21.17;;;17.30;;
6193;SDS011;3130;41.564;23.280;2022-09-01T05:41:46;23.73;;;18.30;;
6193;SDS011;3130;41.564;23.280;2022-09-01T05:44:14;23.73;;;19.13;;
6193;SDS011;3130;41.564;23.280;2022-09-01T05:46:44;25.40;;;18.30;;
6193;SDS011;3130;41.564;23.280;2022-09-01T05:49:12;19.90;;;17.50;;
6193;SDS011;3130;41.564;23.280;2022-09-01T05:51:41;20.63;;;17.97;;
6193;SDS011;3130;41.564;23.280;2022-09-01T05:54:14;25.13;;;18.87;;
6193;SDS011;3130;41.564;23.280;2022-09-01T05:56:43;21.37;;;17.67;;
6193;SDS011;3130;41.564;23.280;2022-09-01T05:59:11;20.53;;;17.23;;
6193;SDS011;3130;41.564;23.280;2022-09-01T06:01:40;20.53;;;16.47;;
6193;SDS011;3130;41.564;23.280;2022-09-01T06:04:09;20.97;;;18.30;;
6193;SDS011;3130;41.564;23.280;2022-09-01T06:06:42;20.00;;;17.10;;
6193;SDS011;3130;41.564;23.280;2022-09-01T06:09:15;21.13;;;18.83;;
6193;SDS011;3130;41.564;23.280;2022-09-01T06:11:43;19.00;;;17.10;;
6193;SDS011;3130;41.564;23.280;2022-09-01T06:14:12;18.17;;;16.27;;
6193;SDS011;3130;41.564;23.280;2022-09-01T06:16:40;18.83;;;16.43;;
6193;SDS011;3130;41.564;23.280;2022-09-01T06:19:09;21.97;;;17.53;;
6193;SDS011;3130;41.564;23.280;2022-09-01T06:21:37;19.20;;;15.67;;
6193;SDS011;3130;41.564;23.280;2022-09-01T06:24:05;20.10;;;16.60;;
6193;SDS011;3130;41.564;23.280;2022-09-01T06:26:33;19.27;;;15.63;;
6193;SDS011;3130;41.564;23.280;2022-09-01T06:29:04;19.90;;;17.10;;
6193;SDS011;3130;41.564;23.280;2022-09-01T06:31:34;22.30;;;17.70;;
6193;SDS011;3130;41.564;23.280;2022-09-01T06:34:04;18.53;;;16.37;;
6193;SDS011;3130;41.564;23.280;2022-09-01T06:36:35;18.70;;;16.53;;
6193;SDS011;3130;41.564;23.280;2022-09-01T06:39:05;18.70;;;15.43;;
6193;SDS011;3130;41.564;23.280;2022-09-01T06:41:32;18.90;;;16.23;;
6193;SDS011;3130;41.564;23.280;2022-09-01T06:44:00;17.93;;;16.13;;
6193;SDS011;3130;41.564;23.280;2022-09-01T06:46:28;19.07;;;15.67;;
6193;SDS011;3130;41.564;23.280;2022-09-01T06:48:55;16.87;;;14.60;;
6193;SDS011;3130;41.564;23.280;2022-09-01T06:51:24;20.43;;;16.23;;
6193;SDS011;3130;41.564;23.280;2022-09-01T06:53:55;17.63;;;14.53;;
6193;SDS011;3130;41.564;23.280;2022-09-01T06:56:24;17.90;;;15.47;;
6193;SDS011;3130;41.564;23.280;2022-09-01T06:58:55;15.83;;;14.20;;
6193;SDS011;3130;41.564;23.280;2022-09-01T07:01:23;18.57;;;15.13;;
6193;SDS011;3130;41.564;23.280;2022-09-01T07:03:52;16.63;;;15.03;;
6193;SDS011;3130;41.564;23.280;2022-09-01T07:06:21;16.50;;;14.87;;
6193;SDS011;3130;41.564;23.280;2022-09-01T07:08:51;19.40;;;14.70;;
6193;SDS011;3130;41.564;23.280;2022-09-01T07:11:22;17.73;;;13.97;;
6193;SDS011;3130;41.564;23.280;2022-09-01T07:13:52;14.73;;;13.23;;
6193;SDS011;3130;41.564;23.280;2022-09-01T07:16:21;16.45;;;13.45;;
6193;SDS011;3130;41.564;23.280;2022-09-01T07:18:51;15.75;;;11.70;;
6193;SDS011;3130;41.564;23.280;2022-09-01T07:21:20;16.13;;;13.20;;
6193;SDS011;3130;41.564;23.280;2022-09-01T07:23:47;18.20;;;12.38;;
6193;SDS011;3130;41.564;23.280;2022-09-01T07:26:15;14.60;;;11.70;;
6193;SDS011;3130;41.564;23.280;2022-09-01T07:28:45;14.47;;;12.93;;
6193;SDS011;3130;41.564;23.280;2022-09-01T07:31:17;16.55;;;12.63;;
6193;SDS011;3130;41.564;23.280;2022-09-01T07:33:47;13.93;;;12.52;;
6193;SDS011;3130;41.564;23.280;2022-09-01T07:36:16;13.90;;;11.93;;
6193;SDS011;3130;41.564;23.280;2022-09-01T07:38:44;15.93;;;12.57;;
6193;SDS011;3130;41.564;23.280;2022-09-01T07:41:18;14.55;;;12.93;;
6193;SDS011;3130;41.564;23.280;2022-09-01T07:43:48;14.63;;;12.35;;
6193;SDS011;3130;41.564;23.280;2022-09-01T07:46:17;13.73;;;12.40;;
6193;SDS011;3130;41.564;23.280;2022-09-01T07:48:45;13.18;;;11.82;;
6193;SDS011;3130;41.564;23.280;2022-09-01T07:51:13;12.18;;;10.88;;
6193;SDS011;3130;41.564;23.280;2022-09-01T07:53:44;14.30;;;12.38;;
6193;SDS011;3130;41.564;23.280;2022-09-01T07:56:13;12.13;;;10.93;;
6193;SDS011;3130;41.564;23.280;2022-09-01T07:58:43;12.63;;;10.05;;
6193;SDS011;3130;41.564;23.280;2022-09-01T08:01:13;12.38;;;10.45;;
6193;SDS011;3130;41.564;23.280;2022-09-01T08:03:43;12.35;;;10.70;;
6193;SDS011;3130;41.564;23.280;2022-09-01T08:06:12;13.27;;;11.35;;
6193;SDS011;3130;41.564;23.280;2022-09-01T08:08:43;9.57;;;8.68;;
6193;SDS011;3130;41.564;23.280;2022-09-01T08:11:14;10.30;;;9.30;;
6193;SDS011;3130;41.564;23.280;2022-09-01T08:13:44;9.50;;;8.52;;
6193;SDS011;3130;41.564;23.280;2022-09-01T08:16:12;10.02;;;8.25;;
6193;SDS011;3130;41.564;23.280;2022-09-01T08:18:40;11.48;;;8.77;;
6193;SDS011;3130;41.564;23.280;2022-09-01T08:21:09;12.23;;;10.60;;
6193;SDS011;3130;41.564;23.280;2022-09-01T08:23:38;11.95;;;10.82;;
6193;SDS011;3130;41.564;23.280;2022-09-01T08:26:06;11.73;;;10.52;;
6193;SDS011;3130;41.564;23.280;2022-09-01T08:28:34;13.82;;;11.85;;
6193;SDS011;3130;41.564;23.280;2022-09-01T08:31:04;13.18;;;11.90;;
6193;SDS011;3130;41.564;23.280;2022-09-01T08:33:34;16.27;;;12.15;;
6193;SDS011;3130;41.564;23.280;2022-09-01T08:36:01;12.18;;;10.88;;
6193;SDS011;3130;41.564;23.280;2022-09-01T08:38:29;12.38;;;11.00;;
6193;SDS011;3130;41.564;23.280;2022-09-01T08:40:56;13.38;;;11.98;;
6193;SDS011;3130;41.564;23.280;2022-09-01T08:43:30;12.73;;;11.48;;
6193;SDS011;3130;41.564;23.280;2022-09-01T08:46:07;12.60;;;11.30;;
6193;SDS011;3130;41.564;23.280;2022-09-01T08:48:40;12.68;;;11.18;;
6193;SDS011;3130;41.564;23.280;2022-09-01T08:51:12;17.08;;;11.45;;
6193;SDS011;3130;41.564;23.280;2022-09-01T08:53:48;18.42;;;10.95;;
6193;SDS011;3130;41.564;23.280;2022-09-01T08:56:24;13.43;;;11.05;;
6193;SDS011;3130;41.564;23.280;2022-09-01T08:58:52;11.57;;;10.38;;
6193;SDS011;3130;41.564;23.280;2022-09-01T09:01:20;14.18;;;10.15;;
6193;SDS011;3130;41.564;23.280;2022-09-01T09:04:05;19.05;;;15.00;;
6193;SDS011;3130;41.564;23.280;2022-09-01T09:06:43;16.08;;;12.45;;
6193;SDS011;3130;41.564;23.280;2022-09-01T09:09:17;19.55;;;15.90;;
6193;SDS011;3130;41.564;23.280;2022-09-01T09:11:53;19.73;;;15.52;;
6193;SDS011;3130;41.564;23.280;2022-09-01T09:14:45;16.80;;;11.90;;
6193;SDS011;3130;41.564;23.280;2022-09-01T09:17:22;12.48;;;11.15;;
6193;SDS011;3130;41.564;23.280;2022-09-01T09:19:57;11.30;;;9.90;;
6193;SDS011;3130;41.564;23.280;2022-09-01T09:22:27;11.88;;;10.40;;
6193;SDS011;3130;41.564;23.280;2022-09-01T09:24:57;11.88;;;10.60;;
6193;SDS011;3130;41.564;23.280;2022-09-01T09:27:31;16.73;;;11.98;;
6193;SDS011;3130;41.564;23.280;2022-09-01T09:30:00;12.13;;;10.77;;
6193;SDS011;3130;41.564;23.280;2022-09-01T09:32:41;13.32;;;11.48;;
6193;SDS011;3130;41.564;23.280;2022-09-01T09:38:14;12.60;;;10.15;;
6193;SDS011;3130;41.564;23.280;2022-09-01T09:40:56;11.45;;;9.93;;
6193;SDS011;3130;41.564;23.280;2022-09-01T09:43:25;13.82;;;9.80;;
6193;SDS011;3130;41.564;23.280;2022-09-01T09:46:18;12.18;;;9.77;;
6193;SDS011;3130;41.564;23.280;2022-09-01T09:49:05;12.27;;;9.93;;
6193;SDS011;3130;41.564;23.280;2022-09-01T09:51:34;10.57;;;8.80;;
6193;SDS011;3130;41.564;23.280;2022-09-01T09:54:12;16.30;;;11.65;;
6193;SDS011;3130;41.564;23.280;2022-09-01T09:56:41;11.38;;;9.70;;
6193;SDS011;3130;41.564;23.280;2022-09-01T09:59:17;12.98;;;11.60;;
6193;SDS011;3130;41.564;23.280;2022-09-01T10:01:48;11.55;;;10.27;;
6193;SDS011;3130;41.564;23.280;2022-09-01T10:07:28;11.13;;;9.60;;
6193;SDS011;3130;41.564;23.280;2022-09-01T10:09:57;9.82;;;8.82;;
6193;SDS011;3130;41.564;23.280;2022-09-01T10:12:27;14.27;;;10.00;;
6193;SDS011;3130;41.564;23.280;2022-09-01T10:14:57;13.45;;;11.02;;
6193;SDS011;3130;41.564;23.280;2022-09-01T10:17:30;11.20;;;9.02;;
6193;SDS011;3130;41.564;23.280;2022-09-01T10:20:02;11.80;;;9.27;;
6193;SDS011;3130;41.564;23.280;2022-09-01T10:22:33;12.27;;;9.80;;
6193;SDS011;3130;41.564;23.280;2022-09-01T10:25:02;9.90;;;8.90;;
6193;SDS011;3130;41.564;23.280;2022-09-01T10:27:31;11.05;;;8.23;;
6193;SDS011;3130;41.564;23.280;2022-09-01T10:30:10;12.07;;;9.52;;
6193;SDS011;3130;41.564;23.280;2022-09-01T10:32:41;10.75;;;9.02;;
6193;SDS011;3130;41.564;23.280;2022-09-01T10:35:10;9.85;;;7.70;;
6193;SDS011;3130;41.564;23.280;2022-09-01T10:37:43;10.38;;;8.15;;
6193;SDS011;3130;41.564;23.280;2022-09-01T10:40:12;10.32;;;8.57;;
6193;SDS011;3130;41.564;23.280;2022-09-01T10:42:59;10.35;;;9.32;;
6193;SDS011;3130;41.564;23.280;2022-09-01T10:45:47;10.90;;;9.02;;
6193;SDS011;3130;41.564;23.280;2022-09-01T10:48:26;11.68;;;9.63;;
6193;SDS011;3130;41.564;23.280;2022-09-01T10:53:56;10.07;;;9.07;;
6193;SDS011;3130;41.564;23.280;2022-09-01T10:56:25;11.52;;;10.32;;
6193;SDS011;3130;41.564;23.280;2022-09-01T10:59:04;9.27;;;8.38;;
6193;SDS011;3130;41.564;23.280;2022-09-01T11:07:41;10.07;;;8.65;;
6193;SDS011;3130;41.564;23.280;2022-09-01T11:10:26;9.23;;;8.38;;
6193;SDS011;3130;41.564;23.280;2022-09-01T11:13:23;10.80;;;8.70;;
6193;SDS011;3130;41.564;23.280;2022-09-01T11:18:54;10.38;;;7.97;;
6193;SDS011;3130;41.564;23.280;2022-09-01T11:21:25;9.82;;;7.20;;
6193;SDS011;3130;41.564;23.280;2022-09-01T11:26:57;10.10;;;6.65;;
6193;SDS011;3130;41.564;23.280;2022-09-01T11:32:18;12.10;;;9.70;;
6193;SDS011;3130;41.564;23.280;2022-09-01T11:34:47;8.98;;;7.50;;
6193;SDS011;3130;41.564;23.280;2022-09-01T11:37:20;11.90;;;8.70;;
6193;SDS011;3130;41.564;23.280;2022-09-01T11:39:49;9.15;;;8.25;;
6193;SDS011;3130;41.564;23.280;2022-09-01T11:42:20;11.18;;;8.45;;
6193;SDS011;3130;41.564;23.280;2022-09-01T11:44:54;9.95;;;8.93;;
6193;SDS011;3130;41.564;23.280;2022-09-01T11:47:26;9.23;;;8.02;;
6193;SDS011;3130;41.564;23.280;2022-09-01T11:49:58;10.50;;;8.05;;
6193;SDS011;3130;41.564;23.280;2022-09-01T11:52:30;9.88;;;8.82;;
6193;SDS011;3130;41.564;23.280;2022-09-01T11:55:00;10.77;;;8.63;;
6193;SDS011;3130;41.564;23.280;2022-09-01T11:57:29;9.77;;;8.73;;
6193;SDS011;3130;41.564;23.280;2022-09-01T11:59:59;10.70;;;8.75;;
6193;SDS011;3130;41.564;23.280;2022-09-01T12:02:28;13.65;;;8.13;;
6193;SDS011;3130;41.564;23.280;2022-09-01T12:04:57;11.23;;;8.38;;
6193;SDS011;3130;41.564;23.280;2022-09-01T12:07:27;11.65;;;8.35;;
6193;SDS011;3130;41.564;23.280;2022-09-01T12:10:03;13.00;;;8.65;;
6193;SDS011;3130;41.564;23.280;2022-09-01T12:12:40;11.02;;;8.65;;
6193;SDS011;3130;41.564;23.280;2022-09-01T12:15:08;9.23;;;7.95;;
6193;SDS011;3130;41.564;23.280;2022-09-01T12:17:42;12.93;;;9.15;;
6193;SDS011;3130;41.564;23.280;2022-09-01T12:20:20;9.30;;;8.32;;
6193;SDS011;3130;41.564;23.280;2022-09-01T12:22:51;9.35;;;7.80;;
6193;SDS011;3130;41.564;23.280;2022-09-01T12:25:19;17.52;;;12.27;;
6193;SDS011;3130;41.564;23.280;2022-09-01T12:27:48;54.35;;;48.70;;
6193;SDS011;3130;41.564;23.280;2022-09-01T12:30:24;11.82;;;9.38;;
6193;SDS011;3130;41.564;23.280;2022-09-01T12:32:52;10.48;;;7.72;;
6193;SDS011;3130;41.564;23.280;2022-09-01T12:35:21;8.35;;;7.55;;
6193;SDS011;3130;41.564;23.280;2022-09-01T12:37:51;9.05;;;7.57;;
6193;SDS011;3130;41.564;23.280;2022-09-01T12:40:40;10.80;;;7.45;;
6193;SDS011;3130;41.564;23.280;2022-09-01T12:43:07;9.85;;;7.22;;
6193;SDS011;3130;41.564;23.280;2022-09-01T12:45:39;9.07;;;8.15;;
6193;SDS011;3130;41.564;23.280;2022-09-01T12:48:22;10.68;;;7.38;;
6193;SDS011;3130;41.564;23.280;2022-09-01T12:50:50;8.40;;;7.57;;
6193;SDS011;3130;41.564;23.280;2022-09-01T12:53:24;7.93;;;7.13;;
6193;SDS011;3130;41.564;23.280;2022-09-01T12:55:54;8.68;;;7.82;;
6193;SDS011;3130;41.564;23.280;2022-09-01T12:58:26;8.55;;;7.57;;
6193;SDS011;3130;41.564;23.280;2022-09-01T13:00:56;9.98;;;7.63;;
6193;SDS011;3130;41.564;23.280;2022-09-01T13:03:25;9.43;;;7.70;;
6193;SDS011;3130;41.564;23.280;2022-09-01T13:05:54;10.10;;;7.50;;
6193;SDS011;3130;41.564;23.280;2022-09-01T13:08:25;9.18;;;7.90;;
6193;SDS011;3130;41.564;23.280;2022-09-01T13:10:54;8.15;;;7.32;;
6193;SDS011;3130;41.564;23.280;2022-09-01T13:13:25;10.55;;;8.45;;
6193;SDS011;3130;41.564;23.280;2022-09-01T13:15:53;7.88;;;7.07;;
6193;SDS011;3130;41.564;23.280;2022-09-01T13:18:25;9.27;;;7.93;;
6193;SDS011;3130;41.564;23.280;2022-09-01T13:20:54;8.50;;;7.55;;
6193;SDS011;3130;41.564;23.280;2022-09-01T13:23:24;11.73;;;8.43;;
6193;SDS011;3130;41.564;23.280;2022-09-01T13:25:51;9.05;;;7.38;;
6193;SDS011;3130;41.564;23.280;2022-09-01T13:28:19;9.18;;;8.07;;
6193;SDS011;3130;41.564;23.280;2022-09-01T13:30:49;30.67;;;27.58;;
6193;SDS011;3130;41.564;23.280;2022-09-01T13:33:20;38.63;;;34.50;;
6193;SDS011;3130;41.564;23.280;2022-09-01T13:35:48;13.77;;;12.35;;
6193;SDS011;3130;41.564;23.280;2022-09-01T13:38:16;9.18;;;7.80;;
6193;SDS011;3130;41.564;23.280;2022-09-01T13:40:45;10.80;;;8.07;;
6193;SDS011;3130;41.564;23.280;2022-09-01T13:43:15;9.95;;;7.45;;
6193;SDS011;3130;41.564;23.280;2022-09-01T13:45:43;10.10;;;7.68;;
6193;SDS011;3130;41.564;23.280;2022-09-01T13:48:11;9.35;;;8.45;;
6193;SDS011;3130;41.564;23.280;2022-09-01T13:50:39;9.93;;;7.78;;
6193;SDS011;3130;41.564;23.280;2022-09-01T13:53:06;10.10;;;9.10;;
6193;SDS011;3130;41.564;23.280;2022-09-01T13:55:35;14.63;;;8.57;;
6193;SDS011;3130;41.564;23.280;2022-09-01T13:58:06;9.73;;;8.77;;
6193;SDS011;3130;41.564;23.280;2022-09-01T14:00:34;9.68;;;7.93;;
6193;SDS011;3130;41.564;23.280;2022-09-01T14:03:04;11.57;;;7.65;;
6193;SDS011;3130;41.564;23.280;2022-09-01T14:05:37;9.80;;;7.72;;
6193;SDS011;3130;41.564;23.280;2022-09-01T14:08:08;9.73;;;8.27;;
6193;SDS011;3130;41.564;23.280;2022-09-01T14:10:38;12.32;;;9.95;;
6193;SDS011;3130;41.564;23.280;2022-09-01T14:13:08;8.93;;;8.02;;
6193;SDS011;3130;41.564;23.280;2022-09-01T14:15:36;10.18;;;8.40;;
6193;SDS011;3130;41.564;23.280;2022-09-01T14:18:03;9.98;;;8.70;;
6193;SDS011;3130;41.564;23.280;2022-09-01T14:20:31;10.43;;;9.10;;
6193;SDS011;3130;41.564;23.280;2022-09-01T14:23:04;9.20;;;8.30;;
6193;SDS011;3130;41.564;23.280;2022-09-01T14:25:32;11.15;;;8.18;;
6193;SDS011;3130;41.564;23.280;2022-09-01T14:28:02;10.63;;;8.90;;
6193;SDS011;3130;41.564;23.280;2022-09-01T14:30:31;12.32;;;9.10;;
6193;SDS011;3130;41.564;23.280;2022-09-01T14:32:59;11.65;;;7.90;;
6193;SDS011;3130;41.564;23.280;2022-09-01T14:35:27;12.00;;;8.38;;
6193;SDS011;3130;41.564;23.280;2022-09-01T14:37:57;10.50;;;8.65;;
6193;SDS011;3130;41.564;23.280;2022-09-01T14:40:24;8.80;;;7.90;;
6193;SDS011;3130;41.564;23.280;2022-09-01T14:42:53;11.35;;;8.45;;
6193;SDS011;3130;41.564;23.280;2022-09-01T14:45:22;10.13;;;7.63;;
6193;SDS011;3130;41.564;23.280;2022-09-01T14:47:53;10.10;;;8.45;;
6193;SDS011;3130;41.564;23.280;2022-09-01T14:50:23;17.40;;;13.27;;
6193;SDS011;3130;41.564;23.280;2022-09-01T14:52:52;35.80;;;31.83;;
6193;SDS011;3130;41.564;23.280;2022-09-01T14:55:21;23.02;;;20.63;;
6193;SDS011;3130;41.564;23.280;2022-09-01T14:57:50;12.32;;;9.13;;
6193;SDS011;3130;41.564;23.280;2022-09-01T15:00:19;10.27;;;8.85;;
6193;SDS011;3130;41.564;23.280;2022-09-01T15:02:47;15.07;;;10.25;;
6193;SDS011;3130;41.564;23.280;2022-09-01T15:05:15;16.38;;;11.55;;
6193;SDS011;3130;41.564;23.280;2022-09-01T15:07:43;13.57;;;11.75;;
6193;SDS011;3130;41.564;23.280;2022-09-01T15:10:11;10.38;;;9.30;;
6193;SDS011;3130;41.564;23.280;2022-09-01T15:12:41;12.95;;;10.55;;
6193;SDS011;3130;41.564;23.280;2022-09-01T15:15:08;13.77;;;10.50;;
6193;SDS011;3130;41.564;23.280;2022-09-01T15:17:35;11.50;;;9.93;;
6193;SDS011;3130;41.564;23.280;2022-09-01T15:20:03;12.40;;;10.82;;
6193;SDS011;3130;41.564;23.280;2022-09-01T15:22:47;12.38;;;9.45;;
6193;SDS011;3130;41.564;23.280;2022-09-01T15:25:14;12.52;;;10.10;;